sensor_id;sensor_type;location;lat;lon;timestamp;pressure;altitude;pressure_sealevel;temperature;humidity
21273;BME280;36726;52.328;10.552;2023-03-19T00:01:57;100276.22;;;11.85;100.00
21273;BME280;36726;52.328;10.552;2023-03-19T00:04:37;100275.31;;;11.84;100.00
21273;BME280;36726;52.328;10.552;2023-03-19T00:07:04;100279.72;;;11.81;100.00
21273;BME280;36726;52.328;10.552;2023-03-19T00:09:30;100280.63;;;11.80;100.00
21273;BME280;36726;52.328;10.552;2023-03-19T00:11:57;100273.53;;;11.76;100.00
21273;BME280;36726;52.328;10.552;2023-03-19T00:14:23;100265.59;;;11.74;100.00
21273;BME280;36726;52.328;10.552;2023-03-19T00:16:50;100261.16;;;11.72;100.00
21273;BME280;36726;52.328;10.552;2023-03-19T00:19:19;100257.66;;;11.70;100.00
21273;BME280;36726;52.328;10.552;2023-03-19T00:21:46;100257.63;;;11.67;100.00
21273;BME280;36726;52.328;10.552;2023-03-19T00:24:12;100250.56;;;11.66;100.00
21273;BME280;36726;52.328;10.552;2023-03-19T00:26:39;100250.56;;;11.66;100.00
21273;BME280;36726;52.328;10.552;2023-03-19T00:29:06;100253.22;;;11.67;100.00
21273;BME280;36726;52.328;10.552;2023-03-19T00:31:32;100255.84;;;11.69;100.00
21273;BME280;36726;52.328;10.552;2023-03-19T00:34:00;100265.59;;;11.73;100.00
21273;BME280;36726;52.328;10.552;2023-03-19T00:36:27;100261.19;;;11.75;100.00
21273;BME280;36726;52.328;10.552;2023-03-19T00:38:56;100258.53;;;11.76;100.00
21273;BME280;36726;52.328;10.552;2023-03-19T00:41:23;100254.09;;;11.74;100.00
21273;BME280;36726;52.328;10.552;2023-03-19T00:43:54;100246.16;;;11.74;100.00
21273;BME280;36726;52.328;10.552;2023-03-19T00:46:22;100237.31;;;11.72;100.00
21273;BME280;36726;52.328;10.552;2023-03-19T00:48:49;100236.44;;;11.73;100.00
21273;BME280;36726;52.328;10.552;2023-03-19T00:51:19;100238.22;;;11.72;100.00
21273;BME280;36726;52.328;10.552;2023-03-19T00:53:45;100240.00;;;11.73;100.00
21273;BME280;36726;52.328;10.552;2023-03-19T00:56:13;100243.53;;;11.75;100.00
21273;BME280;36726;52.328;10.552;2023-03-19T00:58:42;100232.94;;;11.77;100.00
21273;BME280;36726;52.328;10.552;2023-03-19T01:01:10;100231.19;;;11.79;100.00
21273;BME280;36726;52.328;10.552;2023-03-19T01:03:37;100232.03;;;11.78;100.00
21273;BME280;36726;52.328;10.552;2023-03-19T01:06:04;100234.66;;;11.72;100.00
21273;BME280;36726;52.328;10.552;2023-03-19T01:08:31;100235.50;;;11.63;100.00
21273;BME280;36726;52.328;10.552;2023-03-19T01:11:24;100232.81;;;11.52;100.00
21273;BME280;36726;52.328;10.552;2023-03-19T01:13:50;100226.63;;;11.46;100.00
21273;BME280;36726;52.328;10.552;2023-03-19T01:16:17;100220.41;;;11.39;100.00
21273;BME280;36726;52.328;10.552;2023-03-19T01:18:44;100230.09;;;11.33;100.00
21273;BME280;36726;52.328;10.552;2023-03-19T01:21:11;100223.00;;;11.24;100.00
21273;BME280;36726;52.328;10.552;2023-03-19T01:23:44;100220.31;;;11.18;100.00
21273;BME280;36726;52.328;10.552;2023-03-19T01:26:10;100216.78;;;11.12;100.00
21273;BME280;36726;52.328;10.552;2023-03-19T01:28:38;100210.53;;;11.05;100.00
21273;BME280;36726;52.328;10.552;2023-03-19T01:31:06;100221.97;;;10.98;100.00
21273;BME280;36726;52.328;10.552;2023-03-19T01:33:49;100218.41;;;10.90;100.00
21273;BME280;36726;52.328;10.552;2023-03-19T01:36:25;100216.56;;;10.83;100.00
21273;BME280;36726;52.328;10.552;2023-03-19T01:38:59;100221.84;;;10.76;100.00
21273;BME280;36726;52.328;10.552;2023-03-19T01:41:26;100224.44;;;10.73;100.00
21273;BME280;36726;52.328;10.552;2023-03-19T01:43:57;100223.56;;;10.69;100.00
21273;BME280;36726;52.328;10.552;2023-03-19T01:46:35;100217.34;;;10.64;100.00
21273;BME280;36726;52.328;10.552;2023-03-19T01:49:13;100220.00;;;10.63;100.00
21273;BME280;36726;52.328;10.552;2023-03-19T01:51:46;100214.66;;;10.58;100.00
21273;BME280;36726;52.328;10.552;2023-03-19T01:54:45;100214.63;;;10.55;100.00
21273;BME280;36726;52.328;10.552;2023-03-19T01:57:34;100210.25;;;10.54;100.00
21273;BME280;36726;52.328;10.552;2023-03-19T02:00:24;100207.53;;;10.50;100.00
21273;BME280;36726;52.328;10.552;2023-03-19T02:02:56;100211.03;;;10.45;100.00
21273;BME280;36726;52.328;10.552;2023-03-19T02:05:51;100210.13;;;10.42;100.00
21273;BME280;36726;52.328;10.552;2023-03-19T02:08:21;100206.56;;;10.38;100.00
21273;BME280;36726;52.328;10.552;2023-03-19T02:10:49;100198.63;;;10.34;100.00
21273;BME280;36726;52.328;10.552;2023-03-19T02:13:17;100207.41;;;10.30;100.00
21273;BME280;36726;52.328;10.552;2023-03-19T02:15:44;100209.13;;;10.25;100.00
21273;BME280;36726;52.328;10.552;2023-03-19T02:18:11;100206.44;;;10.22;100.00
21273;BME280;36726;52.328;10.552;2023-03-19T02:26:09;100212.69;;;10.33;100.00
21273;BME280;36726;52.328;10.552;2023-03-19T02:28:40;100213.59;;;10.36;100.00
21273;BME280;36726;52.328;10.552;2023-03-19T02:31:09;100218.03;;;10.39;100.00
21273;BME280;36726;52.328;10.552;2023-03-19T02:33:36;100224.25;;;10.42;100.00
21273;BME280;36726;52.328;10.552;2023-03-19T02:36:05;100221.63;;;10.47;100.00
21273;BME280;36726;52.328;10.552;2023-03-19T02:38:35;100222.56;;;10.52;100.00
21273;BME280;36726;52.328;10.552;2023-03-19T02:41:06;100217.28;;;10.57;100.00
21273;BME280;36726;52.328;10.552;2023-03-19T02:43:37;100222.63;;;10.63;100.00
21273;BME280;36726;52.328;10.552;2023-03-19T02:46:07;100222.69;;;10.69;100.00
21273;BME280;36726;52.328;10.552;2023-03-19T02:48:35;100228.88;;;10.74;100.00
21273;BME280;36726;52.328;10.552;2023-03-19T02:51:03;100234.19;;;10.75;100.00
21273;BME280;36726;52.328;10.552;2023-03-19T02:53:30;100229.75;;;10.71;100.00
21273;BME280;36726;52.328;10.552;2023-03-19T02:55:56;100236.75;;;10.65;100.00
21273;BME280;36726;52.328;10.552;2023-03-19T02:58:23;100226.13;;;10.56;100.00
21273;BME280;36726;52.328;10.552;2023-03-19T03:00:49;100226.91;;;10.47;100.00
21273;BME280;36726;52.328;10.552;2023-03-19T03:03:19;100233.91;;;10.40;100.00
21273;BME280;36726;52.328;10.552;2023-03-19T03:05:46;100225.06;;;10.34;100.00
21273;BME280;36726;52.328;10.552;2023-03-19T03:08:12;100228.53;;;10.27;100.00
21273;BME280;36726;52.328;10.552;2023-03-19T03:10:39;100237.31;;;10.23;100.00
21273;BME280;36726;52.328;10.552;2023-03-19T03:13:05;100236.38;;;10.18;100.00
21273;BME280;36726;52.328;10.552;2023-03-19T03:15:33;100232.81;;;10.14;100.00
21273;BME280;36726;52.328;10.552;2023-03-19T03:17:59;100231.03;;;10.12;100.00
21273;BME280;36726;52.328;10.552;2023-03-19T03:20:26;100230.13;;;10.10;100.00
21273;BME280;36726;52.328;10.552;2023-03-19T03:22:53;100245.97;;;10.10;100.00
21273;BME280;36726;52.328;10.552;2023-03-19T03:25:19;100241.59;;;10.10;100.00
21273;BME280;36726;52.328;10.552;2023-03-19T03:27:46;100240.72;;;10.13;100.00
21273;BME280;36726;52.328;10.552;2023-03-19T03:30:14;100246.06;;;10.19;100.00
21273;BME280;36726;52.328;10.552;2023-03-19T03:32:41;100245.25;;;10.26;100.00
21273;BME280;36726;52.328;10.552;2023-03-19T03:35:08;100242.66;;;10.32;100.00
21273;BME280;36726;52.328;10.552;2023-03-19T03:37:36;100252.41;;;10.39;100.00
21273;BME280;36726;52.328;10.552;2023-03-19T03:40:04;100241.00;;;10.43;100.00
21273;BME280;36726;52.328;10.552;2023-03-19T03:42:35;100248.94;;;10.46;100.00
21273;BME280;36726;52.328;10.552;2023-03-19T03:45:04;100248.09;;;10.50;100.00
21273;BME280;36726;52.328;10.552;2023-03-19T03:47:31;100249.00;;;10.54;100.00
21273;BME280;36726;52.328;10.552;2023-03-19T03:49:57;100251.66;;;10.55;100.00
21273;BME280;36726;52.328;10.552;2023-03-19T03:52:24;100247.25;;;10.54;100.00
21273;BME280;36726;52.328;10.552;2023-03-19T03:54:51;100241.94;;;10.51;100.00
21273;BME280;36726;52.328;10.552;2023-03-19T03:57:17;100246.28;;;10.44;100.00
21273;BME280;36726;52.328;10.552;2023-03-19T03:59:44;100248.88;;;10.35;100.00
21273;BME280;36726;52.328;10.552;2023-03-19T04:02:10;100250.53;;;10.27;100.00
21273;BME280;36726;52.328;10.552;2023-03-19T04:04:37;100247.84;;;10.20;100.00
21273;BME280;36726;52.328;10.552;2023-03-19T04:07:04;100259.22;;;10.13;100.00
21273;BME280;36726;52.328;10.552;2023-03-19T04:09:37;100258.25;;;10.08;100.00
21273;BME280;36726;52.328;10.552;2023-03-19T04:12:04;100259.97;;;10.03;100.00
21273;BME280;36726;52.328;10.552;2023-03-19T04:14:30;100266.97;;;9.98;100.00
21273;BME280;36726;52.328;10.552;2023-03-19T04:16:57;100266.06;;;9.94;100.00
21273;BME280;36726;52.328;10.552;2023-03-19T04:19:24;100259.88;;;9.92;100.00
21273;BME280;36726;52.328;10.552;2023-03-19T04:21:51;100267.78;;;9.91;100.00
21273;BME280;36726;52.328;10.552;2023-03-19T04:24:17;100258.94;;;9.87;100.00
21273;BME280;36726;52.328;10.552;2023-03-19T04:26:44;100266.81;;;9.86;100.00
21273;BME280;36726;52.328;10.552;2023-03-19T04:29:14;100263.25;;;9.81;100.00
21273;BME280;36726;52.328;10.552;2023-03-19T04:31:41;100264.06;;;9.75;100.00
21273;BME280;36726;52.328;10.552;2023-03-19T04:34:08;100256.97;;;9.70;100.00
21273;BME280;36726;52.328;10.552;2023-03-19T04:36:34;100260.47;;;9.66;100.00
21273;BME280;36726;52.328;10.552;2023-03-19T04:39:01;100256.00;;;9.62;100.00
21273;BME280;36726;52.328;10.552;2023-03-19T04:41:27;100255.09;;;9.60;100.00
21273;BME280;36726;52.328;10.552;2023-03-19T04:44:18;100255.09;;;9.58;100.00
21273;BME280;36726;52.328;10.552;2023-03-19T04:46:45;100255.94;;;9.59;100.00
21273;BME280;36726;52.328;10.552;2023-03-19T04:49:14;100254.22;;;9.61;100.00
21273;BME280;36726;52.328;10.552;2023-03-19T04:51:44;100250.75;;;9.65;100.00
21273;BME280;36726;52.328;10.552;2023-03-19T04:54:10;100256.03;;;9.66;100.00
21273;BME280;36726;52.328;10.552;2023-03-19T04:56:37;100254.31;;;9.70;100.00
21273;BME280;36726;52.328;10.552;2023-03-19T04:59:04;100257.84;;;9.70;100.00
21273;BME280;36726;52.328;10.552;2023-03-19T05:01:31;100261.41;;;9.71;100.00
21273;BME280;36726;52.328;10.552;2023-03-19T05:04:05;100264.88;;;9.70;100.00
21273;BME280;36726;52.328;10.552;2023-03-19T05:06:35;100274.59;;;9.71;100.00
21273;BME280;36726;52.328;10.552;2023-03-19T05:09:02;100260.50;;;9.72;100.00
21273;BME280;36726;52.328;10.552;2023-03-19T05:11:30;100259.66;;;9.74;100.00
21273;BME280;36726;52.328;10.552;2023-03-19T05:14:14;100263.22;;;9.78;100.00
21273;BME280;36726;52.328;10.552;2023-03-19T05:16:56;100256.22;;;9.80;100.00
21273;BME280;36726;52.328;10.552;2023-03-19T05:19:26;100257.13;;;9.83;100.00
21273;BME280;36726;52.328;10.552;2023-03-19T05:21:53;100254.50;;;9.85;100.00
21273;BME280;36726;52.328;10.552;2023-03-19T05:24:24;100261.53;;;9.86;100.00
21273;BME280;36726;52.328;10.552;2023-03-19T05:26:52;100264.19;;;9.86;100.00
21273;BME280;36726;52.328;10.552;2023-03-19T05:29:38;100268.63;;;9.87;100.00
21273;BME280;36726;52.328;10.552;2023-03-19T05:32:16;100272.09;;;9.86;100.00
21273;BME280;36726;52.328;10.552;2023-03-19T05:34:44;100271.25;;;9.85;100.00
21273;BME280;36726;52.328;10.552;2023-03-19T05:37:11;100273.88;;;9.84;100.00
21273;BME280;36726;52.328;10.552;2023-03-19T05:39:39;100268.53;;;9.81;100.00
21273;BME280;36726;52.328;10.552;2023-03-19T05:42:07;100279.09;;;9.79;100.00
21273;BME280;36726;52.328;10.552;2023-03-19T05:44:34;100279.97;;;9.80;100.00
21273;BME280;36726;52.328;10.552;2023-03-19T05:47:12;100284.38;;;9.81;100.00
21273;BME280;36726;52.328;10.552;2023-03-19T05:49:44;100284.38;;;9.79;100.00
21273;BME280;36726;52.328;10.552;2023-03-19T05:52:11;100281.72;;;9.78;100.00
21273;BME280;36726;52.328;10.552;2023-03-19T05:54:37;100285.22;;;9.77;100.00
21273;BME280;36726;52.328;10.552;2023-03-19T05:57:22;100287.81;;;9.74;100.00
21273;BME280;36726;52.328;10.552;2023-03-19T06:00:15;100290.44;;;9.69;100.00
21273;BME280;36726;52.328;10.552;2023-03-19T06:02:46;100286.00;;;9.67;100.00
21273;BME280;36726;52.328;10.552;2023-03-19T06:05:15;100281.59;;;9.67;100.00
21273;BME280;36726;52.328;10.552;2023-03-19T06:07:42;100280.72;;;9.68;100.00
21273;BME280;36726;52.328;10.552;2023-03-19T06:10:17;100284.28;;;9.72;100.00
21273;BME280;36726;52.328;10.552;2023-03-19T06:12:46;100281.66;;;9.73;100.00
21273;BME280;36726;52.328;10.552;2023-03-19T06:15:36;100287.84;;;9.77;100.00
21273;BME280;36726;52.328;10.552;2023-03-19T06:18:26;100287.91;;;9.80;100.00
21273;BME280;36726;52.328;10.552;2023-03-19T06:20:53;100284.44;;;9.84;100.00
21273;BME280;36726;52.328;10.552;2023-03-19T06:23:19;100291.47;;;9.85;100.00
21273;BME280;36726;52.328;10.552;2023-03-19T06:25:46;100291.47;;;9.85;100.00
21273;BME280;36726;52.328;10.552;2023-03-19T06:28:13;100293.22;;;9.83;100.00
21273;BME280;36726;52.328;10.552;2023-03-19T06:30:42;100302.88;;;9.81;100.00
21273;BME280;36726;52.328;10.552;2023-03-19T06:33:29;100305.50;;;9.79;100.00
21273;BME280;36726;52.328;10.552;2023-03-19T06:35:58;100309.03;;;9.78;100.00
21273;BME280;36726;52.328;10.552;2023-03-19T06:38:25;100306.34;;;9.77;100.00
21273;BME280;36726;52.328;10.552;2023-03-19T06:40:52;100316.94;;;9.78;100.00
21273;BME280;36726;52.328;10.552;2023-03-19T06:43:18;100318.72;;;9.82;100.00
21273;BME280;36726;52.328;10.552;2023-03-19T06:45:45;100316.13;;;9.84;100.00
21273;BME280;36726;52.328;10.552;2023-03-19T06:48:12;100321.44;;;9.87;100.00
21273;BME280;36726;52.328;10.552;2023-03-19T06:50:39;100322.41;;;9.95;100.00
21273;BME280;36726;52.328;10.552;2023-03-19T06:53:06;100321.66;;;10.03;100.00
21273;BME280;36726;52.328;10.552;2023-03-19T06:55:33;100318.25;;;10.15;100.00
21273;BME280;36726;52.328;10.552;2023-03-19T06:58:00;100320.16;;;10.25;100.00
21273;BME280;36726;52.328;10.552;2023-03-19T07:00:27;100321.13;;;10.36;100.00
21273;BME280;36726;52.328;10.552;2023-03-19T07:02:54;100315.94;;;10.47;100.00
21273;BME280;36726;52.328;10.552;2023-03-19T07:05:20;100316.88;;;10.56;100.00
21273;BME280;36726;52.328;10.552;2023-03-19T07:07:47;100309.09;;;10.71;100.00
21273;BME280;36726;52.328;10.552;2023-03-19T07:10:13;100310.13;;;10.91;100.00
21273;BME280;36726;52.328;10.552;2023-03-19T07:12:40;100317.34;;;11.13;100.00
21273;BME280;36726;52.328;10.552;2023-03-19T07:15:07;100318.38;;;11.33;100.00
21273;BME280;36726;52.328;10.552;2023-03-19T07:17:33;100324.63;;;11.47;100.00
21273;BME280;36726;52.328;10.552;2023-03-19T07:20:00;100332.66;;;11.64;100.00
21273;BME280;36726;52.328;10.552;2023-03-19T07:22:30;100328.31;;;11.80;100.00
21273;BME280;36726;52.328;10.552;2023-03-19T07:25:00;100328.41;;;11.95;100.00
21273;BME280;36726;52.328;10.552;2023-03-19T07:27:27;100333.72;;;12.07;100.00
21273;BME280;36726;52.328;10.552;2023-03-19T07:29:53;100344.34;;;12.20;100.00
21273;BME280;36726;52.328;10.552;2023-03-19T07:32:21;100347.94;;;12.36;100.00
21273;BME280;36726;52.328;10.552;2023-03-19T07:34:48;100353.25;;;12.48;100.00
21273;BME280;36726;52.328;10.552;2023-03-19T07:37:15;100355.91;;;12.60;100.00
21273;BME280;36726;52.328;10.552;2023-03-19T07:39:42;100363.03;;;12.70;100.00
21273;BME280;36726;52.328;10.552;2023-03-19T07:42:08;100368.34;;;12.79;100.00
21273;BME280;36726;52.328;10.552;2023-03-19T07:44:37;100373.66;;;12.87;100.00
21273;BME280;36726;52.328;10.552;2023-03-19T07:47:04;100368.34;;;12.93;100.00
21273;BME280;36726;52.328;10.552;2023-03-19T07:49:38;100361.28;;;13.02;100.00
21273;BME280;36726;52.328;10.552;2023-03-19T07:52:05;100368.38;;;13.09;100.00
21273;BME280;36726;52.328;10.552;2023-03-19T07:54:32;100375.44;;;13.16;100.00
21273;BME280;36726;52.328;10.552;2023-03-19T07:56:58;100369.25;;;13.20;100.00
21273;BME280;36726;52.328;10.552;2023-03-19T07:59:25;100371.00;;;13.27;100.00
21273;BME280;36726;52.328;10.552;2023-03-19T08:01:51;100377.19;;;13.32;100.00
21273;BME280;36726;52.328;10.552;2023-03-19T08:04:18;100378.97;;;13.35;100.00
21273;BME280;36726;52.328;10.552;2023-03-19T08:06:44;100388.72;;;13.34;100.00
21273;BME280;36726;52.328;10.552;2023-03-19T08:09:10;100390.50;;;13.35;100.00
21273;BME280;36726;52.328;10.552;2023-03-19T08:11:37;100392.22;;;13.39;100.00
21273;BME280;36726;52.328;10.552;2023-03-19T08:14:03;100399.31;;;13.45;100.00
21273;BME280;36726;52.328;10.552;2023-03-19T08:16:30;100404.63;;;13.49;100.00
21273;BME280;36726;52.328;10.552;2023-03-19T08:18:57;100402.84;;;13.54;100.00
21273;BME280;36726;52.328;10.552;2023-03-19T08:21:23;100405.50;;;13.61;100.00
21273;BME280;36726;52.328;10.552;2023-03-19T08:23:51;100409.94;;;13.65;99.55
21273;BME280;36726;52.328;10.552;2023-03-19T08:26:18;100424.97;;;13.66;98.43
21273;BME280;36726;52.328;10.552;2023-03-19T08:28:44;100424.09;;;13.64;97.94
21273;BME280;36726;52.328;10.552;2023-03-19T08:31:13;100412.59;;;13.60;97.63
21273;BME280;36726;52.328;10.552;2023-03-19T08:33:39;100423.22;;;13.59;97.15
21273;BME280;36726;52.328;10.552;2023-03-19T08:36:08;100431.22;;;13.56;97.04
21273;BME280;36726;52.328;10.552;2023-03-19T08:38:36;100425.03;;;13.52;96.35
21273;BME280;36726;52.328;10.552;2023-03-19T08:41:03;100431.22;;;13.48;96.23
21273;BME280;36726;52.328;10.552;2023-03-19T08:43:32;100431.19;;;13.43;96.36
21273;BME280;36726;52.328;10.552;2023-03-19T08:46:00;100444.50;;;13.40;96.56
21273;BME280;36726;52.328;10.552;2023-03-19T08:48:26;100437.41;;;13.36;96.51
21273;BME280;36726;52.328;10.552;2023-03-19T08:50:54;100443.63;;;13.31;97.07
21273;BME280;36726;52.328;10.552;2023-03-19T08:53:22;100445.41;;;13.24;97.44
21273;BME280;36726;52.328;10.552;2023-03-19T08:55:53;100446.28;;;13.16;98.03
21273;BME280;36726;52.328;10.552;2023-03-19T08:58:20;100448.03;;;13.08;98.63
21273;BME280;36726;52.328;10.552;2023-03-19T09:00:48;100448.00;;;13.02;99.13
21273;BME280;36726;52.328;10.552;2023-03-19T09:03:16;100458.63;;;12.94;99.96
21273;BME280;36726;52.328;10.552;2023-03-19T09:05:43;100454.19;;;12.90;100.00
21273;BME280;36726;52.328;10.552;2023-03-19T09:08:09;100451.53;;;12.90;100.00
21273;BME280;36726;52.328;10.552;2023-03-19T09:10:36;100453.28;;;12.90;100.00
21273;BME280;36726;52.328;10.552;2023-03-19T09:13:04;100447.97;;;12.93;100.00
21273;BME280;36726;52.328;10.552;2023-03-19T09:15:30;100444.44;;;13.00;100.00
21273;BME280;36726;52.328;10.552;2023-03-19T09:17:57;100440.97;;;13.11;100.00
21273;BME280;36726;52.328;10.552;2023-03-19T09:20:24;100439.19;;;13.21;100.00
21273;BME280;36726;52.328;10.552;2023-03-19T09:22:50;100434.78;;;13.33;100.00
21273;BME280;36726;52.328;10.552;2023-03-19T09:25:17;100426.78;;;13.47;100.00
21273;BME280;36726;52.328;10.552;2023-03-19T09:27:43;100424.09;;;13.57;100.00
21273;BME280;36726;52.328;10.552;2023-03-19T09:30:10;100417.91;;;13.66;100.00
21273;BME280;36726;52.328;10.552;2023-03-19T09:32:39;100418.78;;;13.70;100.00
21273;BME280;36726;52.328;10.552;2023-03-19T09:35:06;100417.00;;;13.66;100.00
21273;BME280;36726;52.328;10.552;2023-03-19T09:37:33;100413.47;;;13.64;100.00
21273;BME280;36726;52.328;10.552;2023-03-19T09:39:59;100422.34;;;13.63;100.00
21273;BME280;36726;52.328;10.552;2023-03-19T09:42:52;100412.56;;;13.62;100.00
21273;BME280;36726;52.328;10.552;2023-03-19T09:45:21;100414.38;;;13.61;100.00
21273;BME280;36726;52.328;10.552;2023-03-19T09:47:53;100401.97;;;13.65;100.00
21273;BME280;36726;52.328;10.552;2023-03-19T09:50:23;100406.38;;;13.67;100.00
21273;BME280;36726;52.328;10.552;2023-03-19T09:53:20;100395.72;;;13.69;100.00
21273;BME280;36726;52.328;10.552;2023-03-19T09:55:50;100397.50;;;13.73;100.00
21273;BME280;36726;52.328;10.552;2023-03-19T09:58:19;100408.09;;;13.82;100.00
21273;BME280;36726;52.328;10.552;2023-03-19T10:00:49;100399.22;;;13.89;100.00
21273;BME280;36726;52.328;10.552;2023-03-19T10:03:28;100408.06;;;13.94;100.00
21273;BME280;36726;52.328;10.552;2023-03-19T10:08:59;100393.88;;;14.01;100.00
21273;BME280;36726;52.328;10.552;2023-03-19T10:16:55;100381.38;;;14.12;100.00
21273;BME280;36726;52.328;10.552;2023-03-19T10:19:38;100395.56;;;14.17;100.00
21273;BME280;36726;52.328;10.552;2023-03-19T10:22:11;100392.00;;;14.21;100.00
21273;BME280;36726;52.328;10.552;2023-03-19T10:24:43;100384.88;;;14.26;100.00
21273;BME280;36726;52.328;10.552;2023-03-19T10:27:18;100391.97;;;14.33;100.00
21273;BME280;36726;52.328;10.552;2023-03-19T10:29:45;100390.16;;;14.38;100.00
21273;BME280;36726;52.328;10.552;2023-03-19T10:32:36;100392.81;;;14.41;98.91
21273;BME280;36726;52.328;10.552;2023-03-19T10:35:18;100391.88;;;14.48;97.90
21273;BME280;36726;52.328;10.552;2023-03-19T10:37:47;100398.94;;;14.55;96.88
21273;BME280;36726;52.328;10.552;2023-03-19T10:40:25;100395.38;;;14.62;96.08
21273;BME280;36726;52.328;10.552;2023-03-19T10:43:18;100395.31;;;14.71;95.50
21273;BME280;36726;52.328;10.552;2023-03-19T10:45:46;100389.91;;;14.80;95.18
21273;BME280;36726;52.328;10.552;2023-03-19T10:48:16;100399.59;;;14.89;94.45
21273;BME280;36726;52.328;10.552;2023-03-19T10:50:52;100397.75;;;15.00;93.53
21273;BME280;36726;52.328;10.552;2023-03-19T10:53:31;100400.31;;;15.10;93.22
21273;BME280;36726;52.328;10.552;2023-03-19T10:58:29;100388.63;;;15.28;92.33
21273;BME280;36726;52.328;10.552;2023-03-19T11:01:04;100404.53;;;15.41;93.09
21273;BME280;36726;52.328;10.552;2023-03-19T11:11:35;100396.81;;;15.96;92.40
21273;BME280;36726;52.328;10.552;2023-03-19T11:14:28;100395.72;;;16.12;90.96
21273;BME280;36726;52.328;10.552;2023-03-19T11:17:02;100400.00;;;16.25;88.59
21273;BME280;36726;52.328;10.552;2023-03-19T11:19:39;100398.97;;;16.37;87.11
21273;BME280;36726;52.328;10.552;2023-03-19T11:24:41;100405.81;;;16.59;82.55
21273;BME280;36726;52.328;10.552;2023-03-19T11:27:13;100405.66;;;16.71;81.10
21273;BME280;36726;52.328;10.552;2023-03-19T11:29:42;100409.03;;;16.84;80.99
21273;BME280;36726;52.328;10.552;2023-03-19T11:34:53;100408.72;;;17.03;80.13
21273;BME280;36726;52.328;10.552;2023-03-19T11:45:21;100400.28;;;17.29;74.29
21273;BME280;36726;52.328;10.552;2023-03-19T11:48:15;100401.03;;;17.35;72.86
21273;BME280;36726;52.328;10.552;2023-03-19T11:50:55;100398.31;;;17.40;72.22
21273;BME280;36726;52.328;10.552;2023-03-19T11:53:30;100392.00;;;17.42;72.31
21273;BME280;36726;52.328;10.552;2023-03-19T11:56:22;100391.94;;;17.48;72.53
21273;BME280;36726;52.328;10.552;2023-03-19T12:01:59;100387.06;;;17.70;72.24
21273;BME280;36726;52.328;10.552;2023-03-19T12:19:36;100385.28;;;18.56;66.19
21273;BME280;36726;52.328;10.552;2023-03-19T12:22:10;100388.59;;;18.67;65.33
21273;BME280;36726;52.328;10.552;2023-03-19T12:27:24;100389.59;;;18.63;62.29
21273;BME280;36726;52.328;10.552;2023-03-19T12:30:01;100384.09;;;18.69;64.04
21273;BME280;36726;52.328;10.552;2023-03-19T12:35:30;100382.75;;;18.50;59.94
21273;BME280;36726;52.328;10.552;2023-03-19T12:38:16;100374.75;;;18.48;60.32
21273;BME280;36726;52.328;10.552;2023-03-19T12:40:48;100374.56;;;18.57;62.24
21273;BME280;36726;52.328;10.552;2023-03-19T12:43:26;100370.81;;;18.63;61.47
21273;BME280;36726;52.328;10.552;2023-03-19T12:46:12;100375.84;;;18.78;61.35
21273;BME280;36726;52.328;10.552;2023-03-19T12:48:45;100372.81;;;18.93;60.21
21273;BME280;36726;52.328;10.552;2023-03-19T12:51:19;100366.25;;;19.06;59.18
21273;BME280;36726;52.328;10.552;2023-03-19T12:53:53;100372.28;;;19.14;57.66
21273;BME280;36726;52.328;10.552;2023-03-19T12:56:48;100376.50;;;19.24;57.38
21273;BME280;36726;52.328;10.552;2023-03-19T12:59:22;100370.97;;;19.30;57.49
21273;BME280;36726;52.328;10.552;2023-03-19T13:02:00;100375.13;;;19.43;56.50
21273;BME280;36726;52.328;10.552;2023-03-19T13:04:31;100376.03;;;19.44;54.40
21273;BME280;36726;52.328;10.552;2023-03-19T13:07:06;100374.56;;;19.31;54.84
21273;BME280;36726;52.328;10.552;2023-03-19T13:09:59;100372.28;;;19.14;55.36
21273;BME280;36726;52.328;10.552;2023-03-19T13:12:31;100368.03;;;19.06;55.38
21273;BME280;36726;52.328;10.552;2023-03-19T13:15:15;100367.28;;;18.99;56.29
21273;BME280;36726;52.328;10.552;2023-03-19T13:18:05;100372.09;;;18.85;56.30
21273;BME280;36726;52.328;10.552;2023-03-19T13:21:22;100375.38;;;18.59;55.03
21273;BME280;36726;52.328;10.552;2023-03-19T13:26:43;100371.81;;;18.19;57.00
21273;BME280;36726;52.328;10.552;2023-03-19T13:29:24;100367.59;;;18.06;58.22
21273;BME280;36726;52.328;10.552;2023-03-19T13:31:52;100370.34;;;18.03;58.64
21273;BME280;36726;52.328;10.552;2023-03-19T13:34:26;100375.81;;;17.97;57.29
21273;BME280;36726;52.328;10.552;2023-03-19T13:37:10;100377.91;;;17.83;58.13
21273;BME280;36726;52.328;10.552;2023-03-19T13:39:38;100377.94;;;17.82;58.62
21273;BME280;36726;52.328;10.552;2023-03-19T13:42:09;100381.53;;;17.79;58.60
21273;BME280;36726;52.328;10.552;2023-03-19T13:47:56;100375.38;;;17.76;58.87
21273;BME280;36726;52.328;10.552;2023-03-19T13:50:26;100369.91;;;17.82;59.31
21273;BME280;36726;52.328;10.552;2023-03-19T13:53:22;100369.94;;;17.79;59.52
21273;BME280;36726;52.328;10.552;2023-03-19T13:56:05;100368.41;;;17.66;59.79
21273;BME280;36726;52.328;10.552;2023-03-19T14:01:43;100370.44;;;17.54;60.71
21273;BME280;36726;52.328;10.552;2023-03-19T14:04:26;100372.13;;;17.58;61.93
21273;BME280;36726;52.328;10.552;2023-03-19T14:06:56;100373.09;;;17.54;62.92